Time;durP1;ratioP1;P1;durP2;ratioP2;P2;SDS_P1;SDS_P2;PMS_P1;PMS_P2;Temp;Humidity;BMP_temperature;BMP_pressure;BME280_temperature;BME280_humidity;BME280_pressure;Samples;Min_cycle;Max_cycle;Signal;HPM_P1;HPM_P2
2022/06/09 00:02:01;;;;;;;0.60;0.60;;;18.60;95.30;;;;;;4077955;29;20047;-48
2022/06/09 00:04:30;;;;;;;0.60;0.60;;;18.60;95.20;;;;;;4078084;29;20129;-47
2022/06/09 00:06:58;;;;;;;1.73;0.60;;;18.50;95.40;;;;;;4078122;29;20718;-49
2022/06/09 00:09:22;;;;;;;0.88;0.60;;;18.50;95.60;;;;;;4079922;29;20125;-47
2022/06/09 00:11:48;;;;;;;0.60;0.60;;;18.50;95.30;;;;;;4133889;28;20051;-49
2022/06/09 00:14:09;;;;;;;1.85;0.80;;;18.40;95.30;;;;;;4180292;28;20576;-47
2022/06/09 00:16:30;;;;;;;0.60;0.60;;;18.40;95.40;;;;;;4180495;28;20252;-49
2022/06/09 00:18:51;;;;;;;0.75;0.60;;;18.40;95.40;;;;;;4080678;29;20137;-48
2022/06/09 00:21:12;;;;;;;0.60;0.60;;;18.30;95.40;;;;;;4082266;29;20062;-49
2022/06/09 00:23:36;;;;;;;0.60;0.60;;;18.30;95.80;;;;;;4096674;29;20058;-47
2022/06/09 00:25:58;;;;;;;0.80;0.80;;;18.30;96.20;;;;;;4096434;29;20553;-49
2022/06/09 00:28:19;;;;;;;1.23;0.90;;;18.40;96.00;;;;;;4096278;29;20108;-49
2022/06/09 00:30:41;;;;;;;1.65;0.85;;;18.30;96.00;;;;;;4096277;29;20574;-49
2022/06/09 00:33:03;;;;;;;0.60;0.60;;;18.10;96.80;;;;;;4096680;29;20054;-48
2022/06/09 00:35:25;;;;;;;3.10;1.00;;;18.20;97.30;;;;;;4095885;29;20089;-47
2022/06/09 00:37:47;;;;;;;0.55;0.55;;;18.20;97.00;;;;;;4096327;29;20070;-48
2022/06/09 00:40:12;;;;;;;0.60;0.60;;;18.20;96.70;;;;;;4096171;29;20066;-49
2022/06/09 00:42:38;;;;;;;0.60;0.60;;;18.10;97.00;;;;;;4096534;29;20398;-50
2022/06/09 00:45:28;;;;;;;0.65;0.65;;;18.10;97.40;;;;;;4080341;29;20127;-50
2022/06/09 00:47:55;;;;;;;1.45;0.60;;;18.10;97.70;;;;;;4080276;29;20121;-46
2022/06/09 00:50:19;;;;;;;2.50;0.70;;;18.10;97.90;;;;;;4085980;29;20057;-49
2022/06/09 00:52:44;;;;;;;0.60;0.60;;;18.00;98.30;;;;;;4080201;29;20318;-47
2022/06/09 00:55:15;;;;;;;1.38;1.05;;;17.80;98.80;;;;;;4079565;29;20070;-46
2022/06/09 00:57:48;;;;;;;0.60;0.60;;;17.90;98.40;;;;;;4079984;29;20058;-51
2022/06/09 01:00:16;;;;;;;2.33;0.70;;;17.50;98.50;;;;;;4094894;29;20598;-47
2022/06/09 01:02:41;;;;;;;0.60;0.60;;;17.40;99.00;;;;;;4096150;29;20476;-50
2022/06/09 01:05:05;;;;;;;0.60;0.60;;;17.20;99.10;;;;;;4096079;29;20129;-45
2022/06/09 01:07:38;;;;;;;0.60;0.60;;;17.20;99.20;;;;;;4096099;29;20058;-48
2022/06/09 01:09:59;;;;;;;0.60;0.60;;;17.40;99.30;;;;;;4080555;29;20471;-50
2022/06/09 01:12:30;;;;;;;0.82;0.65;;;17.50;99.30;;;;;;4111408;28;20054;-49
2022/06/09 01:14:55;;;;;;;0.90;0.70;;;17.60;98.60;;;;;;4096130;29;20058;-48
2022/06/09 01:17:53;;;;;;;0.85;0.80;;;17.50;98.80;;;;;;4095144;28;20070;-49
2022/06/09 01:20:39;;;;;;;0.70;0.70;;;17.50;98.90;;;;;;4080026;29;20208;-49
2022/06/09 01:23:19;;;;;;;0.70;0.70;;;17.50;98.80;;;;;;4080180;29;20113;-47
2022/06/09 01:26:02;;;;;;;0.70;0.70;;;17.50;99.00;;;;;;4094238;29;20059;-46
2022/06/09 01:28:44;;;;;;;0.60;0.60;;;17.50;99.20;;;;;;4095642;29;20054;-46
2022/06/09 01:31:06;;;;;;;0.70;0.70;;;17.50;99.50;;;;;;4095599;29;20092;-51
2022/06/09 01:33:40;;;;;;;1.95;0.80;;;17.40;99.80;;;;;;4095523;29;20133;-48
2022/06/09 01:36:14;;;;;;;1.73;0.70;;;17.30;99.90;;;;;;4094666;29;20540;-50
2022/06/09 01:38:52;;;;;;;0.70;0.70;;;17.20;99.90;;;;;;4095612;29;20090;-50
2022/06/09 01:41:15;;;;;;;1.00;0.70;;;17.00;99.90;;;;;;4095426;29;20094;-47
2022/06/09 01:43:36;;;;;;;0.70;0.70;;;17.00;99.90;;;;;;4095135;29;20096;-47
2022/06/09 01:46:08;;;;;;;0.70;0.70;;;16.90;99.90;;;;;;4095581;29;20049;-48
2022/06/09 01:48:32;;;;;;;1.75;0.70;;;17.00;99.90;;;;;;4079736;29;20058;-48
2022/06/09 01:50:57;;;;;;;1.00;0.82;;;17.10;99.90;;;;;;4093585;29;20117;-47
2022/06/09 01:53:32;;;;;;;1.00;0.77;;;17.10;99.90;;;;;;4095703;29;20093;-50
2022/06/09 01:56:00;;;;;;;1.42;0.70;;;17.10;99.90;;;;;;4095361;29;20125;-48
2022/06/09 01:58:26;;;;;;;0.65;0.65;;;17.00;99.90;;;;;;4095672;29;20105;-49
2022/06/09 02:00:49;;;;;;;0.70;0.70;;;17.00;99.90;;;;;;4080776;29;20815;-47
2022/06/09 02:03:16;;;;;;;;;;;17.00;99.90;;;;;;4088194;29;20157;-50
2022/06/09 02:05:45;;;;;;;1.95;0.70;;;16.90;99.90;;;;;;4095243;29;19972;-46
2022/06/09 02:08:15;;;;;;;1.95;0.90;;;17.00;99.90;;;;;;4095398;29;20054;-50
2022/06/09 02:10:40;;;;;;;3.55;0.70;;;17.10;99.90;;;;;;4079352;29;20051;-48
2022/06/09 02:13:14;;;;;;;0.82;0.70;;;17.00;99.90;;;;;;4089520;29;20536;-49
2022/06/09 02:15:44;;;;;;;3.00;1.38;;;16.90;99.90;;;;;;4084467;29;20132;-46
2022/06/09 02:18:13;;;;;;;3.22;0.70;;;17.00;99.90;;;;;;4094675;28;20085;-49
2022/06/09 02:20:37;;;;;;;6.63;0.70;;;17.00;99.90;;;;;;4094836;29;20109;-47
2022/06/09 02:23:07;;;;;;;2.83;0.80;;;17.00;99.90;;;;;;4094070;29;20085;-49
2022/06/09 02:25:28;;;;;;;2.05;0.70;;;16.90;99.90;;;;;;4094641;29;20046;-49
2022/06/09 02:27:50;;;;;;;1.02;0.70;;;17.00;99.90;;;;;;4093512;29;20123;-49
2022/06/09 02:30:12;;;;;;;1.50;0.70;;;17.10;99.90;;;;;;4078885;29;20431;-50
2022/06/09 02:32:53;;;;;;;1.45;0.70;;;17.00;99.90;;;;;;4079199;29;20058;-48
2022/06/09 02:35:16;;;;;;;;;;;17.00;99.90;;;;;;4088836;29;20644;-46
2022/06/09 02:37:36;;;;;;;3.50;0.80;;;17.00;99.90;;;;;;4094468;29;19929;-48
2022/06/09 02:39:58;;;;;;;4.53;0.70;;;17.10;99.90;;;;;;4094630;29;20101;-55
2022/06/09 02:42:18;;;;;;;2.22;0.80;;;17.10;99.90;;;;;;4094768;29;20112;-56
2022/06/09 02:44:39;;;;;;;6.90;1.08;;;16.80;99.90;;;;;;4094462;29;20287;-54
2022/06/09 02:47:00;;;;;;;6.80;0.95;;;16.40;99.90;;;;;;4094551;29;20576;-56
2022/06/09 02:49:21;;;;;;;3.85;1.23;;;15.80;99.90;;;;;;4095213;29;20054;-56
2022/06/09 02:51:42;;;;;;;3.23;1.63;;;15.20;99.90;;;;;;4082083;29;20622;-54
2022/06/09 02:54:06;;;;;;;4.50;1.38;;;14.90;99.90;;;;;;4087313;29;20123;-56
2022/06/09 02:56:27;;;;;;;2.83;2.63;;;14.90;99.90;;;;;;4096187;29;20101;-55
2022/06/09 02:58:48;;;;;;;6.97;2.13;;;14.70;99.90;;;;;;4095918;29;20143;-50
2022/06/09 03:01:10;;;;;;;2.90;1.10;;;14.60;99.90;;;;;;4095821;29;20160;-54
2022/06/09 03:03:33;;;;;;;9.90;1.92;;;14.40;99.90;;;;;;4095762;29;20567;-54
2022/06/09 03:05:55;;;;;;;2.83;1.05;;;14.40;99.90;;;;;;4095716;29;20411;-49
2022/06/09 03:08:17;;;;;;;8.65;1.08;;;14.60;99.90;;;;;;4096036;29;20097;-49
2022/06/09 03:10:38;;;;;;;3.97;2.08;;;14.70;99.90;;;;;;4095749;29;20534;-46
2022/06/09 03:13:00;;;;;;;1.27;1.02;;;14.90;99.90;;;;;;4085189;29;20109;-47
2022/06/09 03:15:23;;;;;;;1.50;0.90;;;15.10;99.90;;;;;;4095853;29;20671;-46
2022/06/09 03:17:45;;;;;;;2.08;0.93;;;15.20;99.90;;;;;;4086899;28;20061;-47
2022/06/09 03:20:09;;;;;;;2.42;0.90;;;15.20;99.90;;;;;;4095473;29;20423;-46
2022/06/09 03:22:30;;;;;;;1.02;0.93;;;15.30;99.90;;;;;;4095634;29;20434;-48
2022/06/09 03:24:52;;;;;;;1.88;0.88;;;15.30;99.90;;;;;;4095421;29;20098;-48
2022/06/09 03:27:13;;;;;;;5.28;1.30;;;15.60;99.90;;;;;;4079841;29;20054;-48
2022/06/09 03:29:34;;;;;;;1.40;0.90;;;15.50;99.90;;;;;;4079800;29;20094;-49
2022/06/09 03:31:56;;;;;;;2.42;0.90;;;15.40;99.90;;;;;;4083578;29;20055;-49
2022/06/09 03:34:21;;;;;;;2.42;0.90;;;15.40;99.90;;;;;;4095604;29;20483;-49
2022/06/09 03:36:45;;;;;;;2.40;0.90;;;15.60;99.90;;;;;;4064003;29;20063;-46
2022/06/09 03:39:08;;;;;;;3.50;0.90;;;15.60;99.90;;;;;;4074070;29;20058;-48
2022/06/09 03:41:29;;;;;;;5.70;0.98;;;15.60;99.90;;;;;;4075741;29;20070;-48
2022/06/09 03:43:56;;;;;;;2.45;0.90;;;15.50;99.90;;;;;;4078463;29;20109;-48
2022/06/09 03:46:18;;;;;;;2.75;1.27;;;15.50;99.90;;;;;;4069126;29;20054;-46
2022/06/09 03:48:40;;;;;;;3.08;1.10;;;15.50;99.90;;;;;;4079072;29;20636;-48
2022/06/09 03:51:02;;;;;;;2.00;1.00;;;15.50;99.90;;;;;;4083557;29;20046;-47
2022/06/09 03:53:24;;;;;;;5.10;1.33;;;15.40;99.90;;;;;;4084801;29;20483;-46
2022/06/09 03:55:46;;;;;;;1.95;1.10;;;15.30;99.90;;;;;;4084621;29;20522;-47
2022/06/09 03:58:08;;;;;;;3.53;1.00;;;15.40;99.90;;;;;;4084872;29;20472;-45
2022/06/09 04:00:32;;;;;;;2.92;1.35;;;15.40;99.90;;;;;;4084512;29;20533;-45
2022/06/09 04:02:54;;;;;;;4.63;1.10;;;15.50;99.90;;;;;;4084686;29;20058;-45
2022/06/09 04:05:16;;;;;;;2.03;1.15;;;15.30;99.90;;;;;;4084753;29;20047;-48
2022/06/09 04:07:38;;;;;;;2.13;1.00;;;15.40;99.90;;;;;;4084520;29;20059;-46
2022/06/09 04:10:00;;;;;;;1.70;1.00;;;15.50;99.90;;;;;;4084671;29;20105;-46
2022/06/09 04:12:22;;;;;;;1.53;1.00;;;15.50;99.90;;;;;;4084666;29;20105;-46
2022/06/09 04:14:44;;;;;;;1.00;0.90;;;15.40;99.90;;;;;;4084964;29;20385;-47
2022/06/09 04:17:06;;;;;;;2.07;0.90;;;15.40;99.90;;;;;;4083863;28;20065;-47
2022/06/09 04:19:28;;;;;;;2.80;1.00;;;15.40;99.90;;;;;;4083392;29;20062;-47
2022/06/09 04:21:51;;;;;;;2.63;1.47;;;15.20;99.90;;;;;;4068135;29;20183;-46
2022/06/09 04:24:12;;;;;;;1.30;1.20;;;15.10;99.90;;;;;;4082279;29;20789;-46
2022/06/09 04:26:38;;;;;;;3.25;1.15;;;15.20;99.90;;;;;;4084456;29;20151;-45
2022/06/09 04:28:59;;;;;;;4.20;1.00;;;15.40;99.90;;;;;;4084492;29;20059;-53
2022/06/09 04:31:22;;;;;;;2.95;1.75;;;15.30;99.90;;;;;;4084230;29;20699;-49
2022/06/09 04:33:44;;;;;;;1.58;1.20;;;15.20;99.90;;;;;;4084361;29;20141;-49
2022/06/09 04:36:07;;;;;;;6.13;2.47;;;15.30;99.90;;;;;;4097583;29;20522;-47
2022/06/09 04:38:30;;;;;;;5.63;1.35;;;15.10;99.90;;;;;;4096239;29;20297;-48
2022/06/09 04:40:52;;;;;;;2.38;1.15;;;15.10;99.90;;;;;;4096613;29;20134;-49
2022/06/09 04:43:14;;;;;;;1.80;1.63;;;15.10;99.90;;;;;;4100068;29;20046;-45
2022/06/09 04:45:40;;;;;;;3.55;0.90;;;15.00;99.90;;;;;;4096469;29;20049;-47
2022/06/09 04:48:03;;;;;;;2.92;0.90;;;15.00;99.90;;;;;;4092230;29;20056;-47
2022/06/09 04:50:25;;;;;;;1.65;1.20;;;15.00;99.90;;;;;;4098905;29;20054;-49
2022/06/09 04:52:46;;;;;;;;;;;15.10;99.90;;;;;;4098994;29;20122;-52
2022/06/09 04:55:09;;;;;;;9.43;1.00;;;15.20;99.90;;;;;;4089496;28;19933;-48
2022/06/09 04:57:30;;;;;;;0.90;0.90;;;15.30;99.90;;;;;;4080232;29;20421;-47
2022/06/09 04:59:53;;;;;;;3.25;1.00;;;15.40;99.90;;;;;;4080453;29;20136;-46
2022/06/09 05:02:16;;;;;;;1.48;1.10;;;15.30;99.90;;;;;;4092143;29;20066;-48
2022/06/09 05:04:39;;;;;;;2.28;1.40;;;15.20;99.90;;;;;;4096064;29;20057;-50
2022/06/09 05:07:00;;;;;;;2.30;0.90;;;15.50;99.90;;;;;;4096300;29;20054;-49
2022/06/09 05:09:22;;;;;;;14.55;1.20;;;15.50;99.90;;;;;;4080213;29;20671;-50
2022/06/09 05:11:44;;;;;;;3.25;1.55;;;15.50;99.90;;;;;;4135794;28;20055;-56
2022/06/09 05:14:05;;;;;;;2.13;1.70;;;15.50;99.90;;;;;;4155406;28;20130;-51
2022/06/09 05:16:27;;;;;;;4.00;1.10;;;15.30;99.90;;;;;;4095709;29;20388;-48
2022/06/09 05:18:49;;;;;;;2.50;1.00;;;15.30;99.90;;;;;;4095910;28;20091;-50
2022/06/09 05:21:10;;;;;;;3.15;1.00;;;15.30;99.90;;;;;;4095759;29;20058;-53
2022/06/09 05:23:33;;;;;;;1.45;1.00;;;15.40;99.90;;;;;;4096050;29;20058;-49
2022/06/09 05:25:58;;;;;;;2.63;1.10;;;15.50;99.90;;;;;;4095142;29;20116;-50
2022/06/09 05:28:24;;;;;;;3.25;1.10;;;15.50;99.90;;;;;;4079865;29;20062;-51
2022/06/09 05:30:46;;;;;;;2.80;1.30;;;15.50;99.90;;;;;;4090131;29;20591;-51
2022/06/09 05:33:08;;;;;;;3.53;1.53;;;15.50;99.90;;;;;;4095529;29;20158;-51
2022/06/09 05:35:30;;;;;;;1.45;1.35;;;15.40;99.90;;;;;;4095346;29;20061;-53
2022/06/09 05:45:56;;;;;;;2.92;1.60;;;15.20;99.90;;;;;;4095363;29;20054;-50
2022/06/09 05:48:19;;;;;;;1.93;1.13;;;15.30;99.90;;;;;;4095752;29;20109;-52
2022/06/09 05:50:41;;;;;;;3.08;1.23;;;15.20;99.90;;;;;;4088337;29;20050;-55
2022/06/09 05:53:02;;;;;;;1.52;1.42;;;15.10;99.90;;;;;;4091899;29;20093;-51
2022/06/09 05:55:24;;;;;;;2.58;1.38;;;15.10;99.90;;;;;;4096733;29;20101;-50
2022/06/09 05:57:46;;;;;;;4.60;1.48;;;15.10;99.90;;;;;;4096025;29;20062;-50
2022/06/09 06:00:08;;;;;;;3.78;1.40;;;15.10;99.90;;;;;;4096562;29;20109;-50
2022/06/09 06:02:30;;;;;;;1.63;1.10;;;15.20;99.90;;;;;;4096323;29;20537;-50
2022/06/09 06:04:54;;;;;;;5.30;1.55;;;15.30;99.90;;;;;;4096680;29;20341;-50
2022/06/09 06:07:16;;;;;;;3.33;1.00;;;15.20;99.90;;;;;;4094805;29;20529;-48
2022/06/09 06:09:38;;;;;;;2.77;1.17;;;15.30;99.90;;;;;;4096620;29;20054;-49
2022/06/09 06:12:03;;;;;;;3.08;1.00;;;15.40;99.90;;;;;;4098782;28;20047;-47
2022/06/09 06:14:28;;;;;;;3.35;1.00;;;15.40;99.90;;;;;;4083421;29;20058;-48
2022/06/09 06:16:50;;;;;;;7.43;1.20;;;15.30;99.90;;;;;;4095820;28;20132;-49
2022/06/09 06:19:16;;;;;;;1.00;1.00;;;15.40;99.90;;;;;;4096504;29;20057;-49
2022/06/09 06:21:41;;;;;;;5.20;1.23;;;15.50;99.90;;;;;;4096246;29;20071;-49
2022/06/09 06:24:04;;;;;;;2.75;1.30;;;15.40;99.90;;;;;;4096324;29;20051;-47
2022/06/09 06:26:26;;;;;;;6.97;1.00;;;15.40;99.90;;;;;;4096062;29;20050;-50
2022/06/09 06:28:49;;;;;;;2.60;2.05;;;15.50;99.90;;;;;;4096310;29;20073;-48
2022/06/09 06:31:10;;;;;;;3.20;1.20;;;15.50;99.90;;;;;;4096159;29;20714;-48
2022/06/09 06:33:32;;;;;;;2.27;1.00;;;15.60;99.90;;;;;;4096054;29;20289;-46
2022/06/09 06:35:54;;;;;;;3.80;1.95;;;15.70;99.90;;;;;;4096045;29;20414;-47
2022/06/09 06:38:16;;;;;;;2.33;1.10;;;15.70;99.90;;;;;;4081742;29;20074;-49
2022/06/09 06:40:38;;;;;;;1.38;0.90;;;15.70;99.90;;;;;;4080827;29;20062;-48
2022/06/09 06:43:00;;;;;;;1.10;1.00;;;15.60;99.90;;;;;;4081065;29;20589;-49
2022/06/09 06:45:22;;;;;;;3.20;1.20;;;15.80;99.90;;;;;;4095857;29;20047;-49
2022/06/09 06:47:44;;;;;;;1.73;1.20;;;15.90;99.90;;;;;;4095762;29;20168;-47
2022/06/09 06:50:08;;;;;;;2.88;1.30;;;15.90;99.90;;;;;;4096003;29;20051;-47
2022/06/09 06:52:30;;;;;;;1.38;1.02;;;15.90;99.90;;;;;;4096048;29;20127;-48
2022/06/09 06:54:52;;;;;;;5.13;1.50;;;15.90;99.90;;;;;;4094854;29;20062;-47
2022/06/09 06:57:14;;;;;;;1.27;1.27;;;15.90;99.90;;;;;;4095886;29;20647;-47
2022/06/09 06:59:36;;;;;;;5.20;1.10;;;16.00;99.90;;;;;;4095638;29;20306;-49
2022/06/09 07:01:58;;;;;;;3.92;1.10;;;16.10;99.90;;;;;;4095948;29;20121;-47
2022/06/09 07:04:20;;;;;;;2.88;1.00;;;15.90;99.90;;;;;;4080255;29;20097;-50
2022/06/09 07:06:42;;;;;;;3.23;1.07;;;16.00;99.90;;;;;;4079030;29;20151;-48
2022/06/09 07:09:04;;;;;;;5.25;1.77;;;16.20;99.90;;;;;;4079824;29;20042;-46
2022/06/09 07:11:26;;;;;;;1.33;1.10;;;16.10;99.90;;;;;;4118829;28;20098;-49
2022/06/09 07:13:49;;;;;;;1.83;1.02;;;16.10;99.90;;;;;;4079962;29;20086;-47
2022/06/09 07:16:12;;;;;;;;;;;16.20;99.90;;;;;;4091629;29;20050;-47
2022/06/09 07:18:54;;;;;;;1.10;1.00;;;16.30;99.90;;;;;;4087930;29;19929;-50
2022/06/09 07:21:16;;;;;;;2.50;0.90;;;16.30;99.90;;;;;;4078535;29;20106;-46
2022/06/09 07:23:38;;;;;;;0.90;0.90;;;16.20;99.90;;;;;;4079823;29;20054;-51
2022/06/09 07:26:01;;;;;;;1.10;1.00;;;16.40;99.90;;;;;;4092987;29;20462;-50
2022/06/09 07:28:24;;;;;;;1.83;1.10;;;16.50;99.90;;;;;;4095456;29;20136;-47
2022/06/09 07:30:46;;;;;;;3.33;1.17;;;16.70;99.90;;;;;;4095468;29;20082;-47
2022/06/09 07:33:10;;;;;;;3.75;1.10;;;16.70;99.90;;;;;;4094691;29;20074;-49
2022/06/09 07:35:36;;;;;;;1.23;1.13;;;16.70;99.90;;;;;;4095308;29;20063;-48
2022/06/09 07:37:58;;;;;;;3.70;1.10;;;16.80;99.90;;;;;;4095337;29;20077;-48
2022/06/09 07:40:22;;;;;;;1.70;0.98;;;17.00;99.90;;;;;;4094772;29;20131;-47
2022/06/09 07:42:44;;;;;;;1.52;1.00;;;17.10;99.90;;;;;;4079714;29;20063;-48
2022/06/09 07:45:09;;;;;;;3.78;1.20;;;17.20;99.90;;;;;;4092410;29;20062;-49
2022/06/09 07:47:30;;;;;;;3.13;1.27;;;17.40;99.90;;;;;;4095127;29;20270;-48
2022/06/09 07:49:52;;;;;;;3.15;1.23;;;17.90;99.90;;;;;;4095425;29;20046;-47
2022/06/09 07:52:13;;;;;;;1.75;1.00;;;18.00;99.90;;;;;;4095540;29;20046;-50
2022/06/09 07:54:35;;;;;;;9.15;1.00;;;17.90;99.90;;;;;;4095226;29;20082;-50
2022/06/09 07:56:56;;;;;;;2.58;1.00;;;18.10;99.90;;;;;;4095317;29;20217;-48
2022/06/09 07:59:18;;;;;;;2.15;1.08;;;18.10;99.90;;;;;;4095390;29;20057;-50
2022/06/09 08:01:40;;;;;;;1.55;0.90;;;18.30;99.90;;;;;;4079478;29;20066;-49
2022/06/09 08:04:03;;;;;;;1.83;1.00;;;18.10;99.90;;;;;;4090722;29;20145;-49
2022/06/09 08:06:25;;;;;;;2.58;0.80;;;18.20;99.90;;;;;;4090201;29;20059;-49
2022/06/09 08:08:48;;;;;;;0.90;0.90;;;18.30;99.90;;;;;;4094058;29;20545;-47
2022/06/09 08:11:10;;;;;;;1.75;1.00;;;18.50;99.90;;;;;;4103903;28;20055;-50
2022/06/09 08:13:32;;;;;;;1.35;0.90;;;18.50;99.90;;;;;;4121234;28;20368;-49
2022/06/09 08:15:54;;;;;;;1.23;0.80;;;18.60;99.90;;;;;;4090809;29;20534;-48
2022/06/09 08:18:16;;;;;;;2.25;1.17;;;18.70;99.90;;;;;;4090465;28;20149;-49
2022/06/09 08:20:42;;;;;;;1.55;0.90;;;18.60;99.90;;;;;;4079398;29;20135;-49
2022/06/09 08:23:24;;;;;;;0.90;0.90;;;18.50;99.90;;;;;;4092322;29;20115;-48
2022/06/09 08:25:46;;;;;;;2.53;0.80;;;18.60;99.90;;;;;;4094763;29;20141;-48
2022/06/09 08:28:08;;;;;;;2.67;1.25;;;18.80;99.90;;;;;;4094905;28;20471;-50
2022/06/09 08:30:32;;;;;;;1.40;0.80;;;19.10;99.90;;;;;;4097189;29;20046;-47
2022/06/09 08:32:54;;;;;;;2.65;1.10;;;19.40;99.90;;;;;;4097611;29;20101;-50
2022/06/09 08:35:20;;;;;;;6.85;1.40;;;19.60;99.90;;;;;;4097378;29;20436;-50
2022/06/09 08:37:45;;;;;;;2.55;0.80;;;19.80;99.90;;;;;;4097616;29;20062;-48
2022/06/09 08:40:11;;;;;;;2.90;0.90;;;19.90;99.90;;;;;;4097756;29;20131;-50
2022/06/09 08:42:54;;;;;;;1.00;0.70;;;20.10;99.90;;;;;;4083410;29;20106;-49
2022/06/09 08:45:28;;;;;;;1.40;0.85;;;19.70;99.90;;;;;;4081661;29;20309;-50
2022/06/09 08:47:54;;;;;;;3.10;0.73;;;19.90;99.90;;;;;;4086610;29;20085;-50
2022/06/09 08:50:31;;;;;;;1.85;1.73;;;20.20;99.90;;;;;;4097520;29;20485;-50
2022/06/09 08:53:08;;;;;;;3.17;0.80;;;20.50;99.90;;;;;;4081513;29;20411;-48
2022/06/09 08:55:47;;;;;;;6.47;1.05;;;21.10;99.90;;;;;;4096427;29;20100;-48
2022/06/09 08:58:17;;;;;;;1.15;0.80;;;21.50;99.90;;;;;;4097239;29;20525;-49
2022/06/09 09:00:48;;;;;;;3.70;0.70;;;21.50;99.90;;;;;;4092264;29;20111;-49
2022/06/09 09:03:28;;;;;;;4.00;0.80;;;21.10;99.90;;;;;;4081759;29;20051;-48
2022/06/09 09:06:19;;;;;;;1.00;0.90;;;21.20;99.90;;;;;;4081454;29;20050;-49
2022/06/09 09:08:40;;;;;;;1.08;0.70;;;21.30;99.90;;;;;;4095425;29;20155;-47
2022/06/09 09:11:37;;;;;;;3.53;0.70;;;21.60;99.90;;;;;;4112960;28;20519;-48
2022/06/09 09:14:07;;;;;;;5.68;1.73;;;22.40;99.90;;;;;;4128800;28;20054;-49
2022/06/09 09:17:21;;;;;;;2.35;0.65;;;22.40;99.90;;;;;;4096893;29;20070;-48
2022/06/09 09:20:02;;;;;;;0.70;0.70;;;22.20;99.90;;;;;;4145794;28;20088;-48
2022/06/09 09:22:40;;;;;;;0.85;0.85;;;22.10;99.90;;;;;;4145901;28;20096;-51
2022/06/09 09:25:24;;;;;;;0.70;0.70;;;22.20;99.90;;;;;;4109662;28;20117;-48
2022/06/09 09:28:10;;;;;;;2.05;0.93;;;22.70;99.90;;;;;;4081224;29;20067;-49
2022/06/09 09:30:42;;;;;;;0.60;0.60;;;22.60;99.90;;;;;;4095868;29;20094;-49
2022/06/09 09:33:04;;;;;;;0.50;0.50;;;22.90;99.90;;;;;;4095837;29;20643;-48
2022/06/09 09:35:59;;;;;;;0.50;0.50;;;22.70;99.90;;;;;;4096582;29;20086;-47
2022/06/09 09:38:22;;;;;;;0.50;0.50;;;22.60;99.90;;;;;;4144878;28;20095;-49
2022/06/09 09:40:50;;;;;;;0.73;0.50;;;22.70;99.90;;;;;;4128954;28;20049;-49
2022/06/09 09:43:23;;;;;;;0.40;0.40;;;23.00;99.90;;;;;;4141032;28;20141;-49
2022/06/09 09:45:52;;;;;;;0.50;0.50;;;22.90;99.90;;;;;;4125941;28;20538;-47
2022/06/09 09:48:19;;;;;;;0.50;0.50;;;22.40;99.90;;;;;;4135127;28;20102;-49
2022/06/09 09:50:59;;;;;;;1.55;0.50;;;22.30;99.90;;;;;;4136534;28;20048;-47
2022/06/09 09:53:30;;;;;;;0.50;0.50;;;22.00;99.90;;;;;;4128981;28;20056;-46
2022/06/09 09:55:54;;;;;;;0.50;0.50;;;21.60;99.90;;;;;;4139642;28;20103;-46
2022/06/09 09:58:27;;;;;;;0.50;0.50;;;22.00;99.90;;;;;;4139735;28;20058;-47
2022/06/09 10:00:55;;;;;;;0.40;0.40;;;22.30;99.90;;;;;;4132838;28;20453;-46
2022/06/09 10:09:15;;;;;;;2.60;0.40;;;23.00;99.90;;;;;;4140003;28;20133;-50
2022/06/09 10:11:55;;;;;;;0.57;0.40;;;22.60;99.90;;;;;;4134712;28;20587;-47
2022/06/09 10:14:44;;;;;;;0.40;0.40;;;22.30;99.90;;;;;;4130287;28;20058;-50
2022/06/09 10:17:18;;;;;;;0.82;0.50;;;22.00;99.90;;;;;;4094517;28;20569;-49
2022/06/09 10:20:14;;;;;;;0.40;0.40;;;21.80;99.90;;;;;;4090411;29;20650;-47
2022/06/09 10:23:04;;;;;;;0.98;0.50;;;21.40;99.90;;;;;;4094600;29;20049;-49
2022/06/09 10:25:38;;;;;;;0.50;0.50;;;21.00;99.90;;;;;;4116576;28;20054;-48
2022/06/09 10:28:16;;;;;;;0.40;0.40;;;21.10;99.90;;;;;;4093607;29;20126;-47
2022/06/09 10:30:47;;;;;;;0.50;0.50;;;21.30;99.90;;;;;;4089045;29;20131;-47
2022/06/09 10:33:10;;;;;;;1.08;0.50;;;21.80;99.90;;;;;;4092929;29;20117;-49
2022/06/09 10:35:52;;;;;;;0.50;0.50;;;21.80;99.90;;;;;;4093749;29;20066;-48
2022/06/09 10:38:47;;;;;;;0.50;0.50;;;21.60;99.90;;;;;;4092576;29;20050;-46
2022/06/09 10:41:17;;;;;;;2.10;0.43;;;21.50;99.90;;;;;;4092688;29;20139;-46
2022/06/09 10:43:40;;;;;;;0.70;0.50;;;21.30;99.90;;;;;;4090236;29;20101;-46
2022/06/09 10:46:41;;;;;;;0.40;0.40;;;21.30;99.90;;;;;;4091809;29;20057;-50
2022/06/09 10:55:19;;;;;;;1.65;0.40;;;21.80;99.90;;;;;;4095130;29;20100;-45
2022/06/09 10:58:09;;;;;;;1.20;0.40;;;22.20;99.90;;;;;;4092848;29;20604;-46
2022/06/09 11:00:35;;;;;;;0.40;0.40;;;22.60;99.90;;;;;;4086712;29;20464;-48
2022/06/09 11:03:02;;;;;;;0.40;0.40;;;22.10;99.90;;;;;;4095356;29;20517;-47
2022/06/09 11:05:50;;;;;;;0.40;0.40;;;21.80;99.90;;;;;;4095211;29;20101;-46
2022/06/09 11:08:25;;;;;;;0.85;0.50;;;21.90;99.90;;;;;;4095518;29;20097;-47
2022/06/09 11:11:26;;;;;;;2.95;0.40;;;22.20;99.90;;;;;;4092684;29;20123;-47
2022/06/09 11:13:55;;;;;;;1.35;0.40;;;22.00;99.90;;;;;;4086741;29;20415;-48
2022/06/09 11:16:20;;;;;;;0.40;0.40;;;21.80;99.90;;;;;;4079927;29;20074;-46
2022/06/09 11:18:55;;;;;;;0.45;0.45;;;21.80;98.70;;;;;;4090722;28;20066;-47
2022/06/09 11:21:30;;;;;;;0.40;0.40;;;21.60;99.40;;;;;;4087283;29;20420;-48
2022/06/09 11:24:18;;;;;;;0.40;0.40;;;21.40;98.70;;;;;;4095621;29;20100;-47
2022/06/09 11:26:40;;;;;;;0.40;0.40;;;21.50;99.00;;;;;;4095747;29;20451;-46
2022/06/09 11:29:26;;;;;;;0.40;0.40;;;21.30;98.50;;;;;;4094596;29;20434;-49
2022/06/09 11:32:14;;;;;;;0.40;0.40;;;21.30;99.10;;;;;;4080627;29;20422;-47
2022/06/09 11:34:44;;;;;;;0.63;0.63;;;21.20;99.50;;;;;;4091202;29;20133;-49
2022/06/09 11:37:14;;;;;;;1.17;0.40;;;21.10;99.10;;;;;;4095030;29;20062;-47
2022/06/09 11:39:42;;;;;;;0.50;0.50;;;21.20;99.70;;;;;;4095473;29;20105;-46
2022/06/09 11:42:16;;;;;;;0.40;0.40;;;21.20;98.60;;;;;;4095253;29;20097;-47
2022/06/09 11:44:40;;;;;;;0.52;0.50;;;21.20;99.10;;;;;;4092846;29;20062;-47
2022/06/09 11:47:11;;;;;;;0.40;0.40;;;21.20;99.90;;;;;;4095355;29;20053;-47
2022/06/09 11:49:44;;;;;;;0.50;0.50;;;21.00;98.70;;;;;;4095258;29;20522;-47
2022/06/09 11:52:10;;;;;;;0.40;0.40;;;20.80;99.90;;;;;;4095375;29;20121;-46
2022/06/09 11:54:57;;;;;;;0.40;0.40;;;20.70;99.40;;;;;;4095382;29;20129;-44
2022/06/09 11:57:34;;;;;;;0.50;0.50;;;20.50;99.00;;;;;;4090313;29;20101;-43
2022/06/09 12:00:04;;;;;;;0.40;0.40;;;20.60;98.50;;;;;;4093806;29;20161;-43
2022/06/09 12:02:44;;;;;;;0.50;0.50;;;20.80;98.40;;;;;;4095151;29;20062;-44
2022/06/09 12:05:18;;;;;;;0.93;0.50;;;20.80;99.00;;;;;;4098039;29;20074;-42
2022/06/09 12:07:50;;;;;;;0.50;0.50;;;21.00;98.70;;;;;;4097539;29;20066;-42
2022/06/09 12:10:35;;;;;;;0.50;0.50;;;20.90;98.30;;;;;;4097113;29;20053;-44
2022/06/09 12:13:12;;;;;;;0.50;0.50;;;20.80;98.40;;;;;;4086613;29;20419;-42
2022/06/09 12:15:59;;;;;;;0.50;0.50;;;21.10;98.30;;;;;;4080816;29;20530;-43
2022/06/09 12:18:23;;;;;;;0.50;0.50;;;21.00;98.60;;;;;;4094139;28;20535;-42
2022/06/09 12:20:48;;;;;;;0.50;0.50;;;21.30;98.10;;;;;;4096995;29;20124;-42
2022/06/09 12:23:26;;;;;;;0.40;0.40;;;21.50;98.40;;;;;;4098427;29;20119;-44
2022/06/09 12:26:10;;;;;;;0.52;0.52;;;21.60;96.40;;;;;;4097783;29;20127;-42
2022/06/09 12:28:46;;;;;;;0.40;0.40;;;21.80;98.60;;;;;;4093277;29;20061;-42
2022/06/09 12:31:10;;;;;;;0.50;0.50;;;21.70;97.20;;;;;;4089566;29;20055;-42
2022/06/09 12:33:34;;;;;;;1.00;0.50;;;21.60;97.90;;;;;;4097470;29;20109;-47
2022/06/09 12:36:08;;;;;;;0.40;0.40;;;21.60;97.60;;;;;;4096107;29;20695;-47
2022/06/09 12:38:50;;;;;;;0.40;0.40;;;21.40;97.20;;;;;;4097469;29;20067;-48
2022/06/09 12:41:34;;;;;;;0.70;0.50;;;21.50;97.90;;;;;;4097986;29;20060;-46
2022/06/09 12:44:25;;;;;;;0.68;0.40;;;21.30;97.60;;;;;;4097628;29;20147;-47
2022/06/09 12:46:54;;;;;;;0.52;0.40;;;21.00;98.00;;;;;;4096157;29;20050;-46
2022/06/09 12:49:21;;;;;;;1.42;0.50;;;20.80;98.80;;;;;;4095616;29;20576;-46
2022/06/09 12:51:42;;;;;;;0.50;0.50;;;20.80;98.80;;;;;;4095546;29;20058;-47
2022/06/09 12:54:17;;;;;;;0.50;0.50;;;20.80;99.00;;;;;;4080451;29;20204;-48
2022/06/09 12:56:40;;;;;;;0.50;0.50;;;20.70;99.10;;;;;;4095318;29;20161;-47
2022/06/09 12:59:30;;;;;;;0.40;0.40;;;20.70;98.60;;;;;;4088511;29;20127;-47
2022/06/09 13:01:58;;;;;;;0.45;0.45;;;20.60;99.00;;;;;;4086364;29;20104;-48
2022/06/09 13:04:22;;;;;;;1.15;0.55;;;20.40;99.20;;;;;;4097233;29;20499;-46
2022/06/09 13:06:47;;;;;;;0.50;0.50;;;20.30;99.60;;;;;;4081499;29;20055;-49
2022/06/09 13:09:32;;;;;;;0.55;0.50;;;20.10;99.90;;;;;;4093399;29;20525;-48
2022/06/09 13:15:02;;;;;;;3.50;0.75;;;19.80;99.90;;;;;;4095696;29;20109;-48